sensor_id;sensor_type;location;lat;lon;timestamp;P1;durP1;ratioP1;P2;durP2;ratioP2
43933;SDS011;59081;42.706;23.306;2022-07-12T00:00:44;3.45;;;2.65;;
43933;SDS011;59081;42.706;23.306;2022-07-12T00:03:10;3.50;;;3.20;;
43933;SDS011;59081;42.706;23.306;2022-07-12T00:05:35;6.22;;;3.20;;
43933;SDS011;59081;42.706;23.306;2022-07-12T00:08:02;4.10;;;3.17;;
43933;SDS011;59081;42.706;23.306;2022-07-12T00:10:28;6.25;;;3.58;;
43933;SDS011;59081;42.706;23.306;2022-07-12T00:12:53;3.40;;;2.92;;
43933;SDS011;59081;42.706;23.306;2022-07-12T00:15:19;6.88;;;2.88;;
43933;SDS011;59081;42.706;23.306;2022-07-12T00:17:46;3.45;;;2.83;;
43933;SDS011;59081;42.706;23.306;2022-07-12T00:20:11;3.67;;;2.78;;
43933;SDS011;59081;42.706;23.306;2022-07-12T00:22:37;9.88;;;3.72;;
43933;SDS011;59081;42.706;23.306;2022-07-12T00:25:03;6.68;;;3.60;;
43933;SDS011;59081;42.706;23.306;2022-07-12T00:27:29;5.72;;;3.58;;
43933;SDS011;59081;42.706;23.306;2022-07-12T00:29:54;4.75;;;2.72;;
43933;SDS011;59081;42.706;23.306;2022-07-12T00:32:20;3.50;;;2.67;;
43933;SDS011;59081;42.706;23.306;2022-07-12T00:34:45;4.32;;;2.70;;
43933;SDS011;59081;42.706;23.306;2022-07-12T00:37:11;4.38;;;3.00;;
43933;SDS011;59081;42.706;23.306;2022-07-12T00:39:36;4.50;;;2.60;;
43933;SDS011;59081;42.706;23.306;2022-07-12T00:42:02;3.28;;;2.97;;
43933;SDS011;59081;42.706;23.306;2022-07-12T00:44:28;3.53;;;3.00;;
43933;SDS011;59081;42.706;23.306;2022-07-12T00:46:55;3.70;;;2.95;;
43933;SDS011;59081;42.706;23.306;2022-07-12T00:49:24;4.75;;;2.95;;
43933;SDS011;59081;42.706;23.306;2022-07-12T00:51:50;7.72;;;2.78;;
43933;SDS011;59081;42.706;23.306;2022-07-12T00:54:16;3.47;;;3.17;;
43933;SDS011;59081;42.706;23.306;2022-07-12T00:56:42;3.95;;;3.05;;
43933;SDS011;59081;42.706;23.306;2022-07-12T00:59:09;5.15;;;2.97;;
43933;SDS011;59081;42.706;23.306;2022-07-12T01:01:34;2.85;;;2.42;;
43933;SDS011;59081;42.706;23.306;2022-07-12T01:04:01;2.15;;;1.95;;
43933;SDS011;59081;42.706;23.306;2022-07-12T01:06:27;6.90;;;2.03;;
43933;SDS011;59081;42.706;23.306;2022-07-12T01:08:54;3.80;;;1.90;;
43933;SDS011;59081;42.706;23.306;2022-07-12T01:11:22;8.65;;;2.35;;
43933;SDS011;59081;42.706;23.306;2022-07-12T01:13:47;3.35;;;2.15;;
43933;SDS011;59081;42.706;23.306;2022-07-12T01:16:15;3.90;;;1.90;;
43933;SDS011;59081;42.706;23.306;2022-07-12T01:18:42;2.53;;;1.75;;
43933;SDS011;59081;42.706;23.306;2022-07-12T01:21:09;5.65;;;2.38;;
43933;SDS011;59081;42.706;23.306;2022-07-12T01:23:36;3.75;;;2.05;;
43933;SDS011;59081;42.706;23.306;2022-07-12T01:26:03;3.35;;;2.40;;
43933;SDS011;59081;42.706;23.306;2022-07-12T01:28:29;2.97;;;2.20;;
43933;SDS011;59081;42.706;23.306;2022-07-12T01:30:54;3.78;;;2.60;;
43933;SDS011;59081;42.706;23.306;2022-07-12T01:33:20;6.20;;;3.20;;
43933;SDS011;59081;42.706;23.306;2022-07-12T01:35:46;5.43;;;2.47;;
43933;SDS011;59081;42.706;23.306;2022-07-12T01:38:12;5.50;;;2.60;;
43933;SDS011;59081;42.706;23.306;2022-07-12T01:40:38;4.15;;;2.63;;
43933;SDS011;59081;42.706;23.306;2022-07-12T01:43:04;3.92;;;2.40;;
43933;SDS011;59081;42.706;23.306;2022-07-12T01:45:31;2.97;;;2.40;;
43933;SDS011;59081;42.706;23.306;2022-07-12T01:47:57;4.45;;;2.65;;
43933;SDS011;59081;42.706;23.306;2022-07-12T01:50:25;6.20;;;2.80;;
43933;SDS011;59081;42.706;23.306;2022-07-12T01:52:51;3.35;;;2.42;;
43933;SDS011;59081;42.706;23.306;2022-07-12T01:55:17;3.83;;;2.55;;
43933;SDS011;59081;42.706;23.306;2022-07-12T01:57:43;4.68;;;2.20;;
43933;SDS011;59081;42.706;23.306;2022-07-12T02:00:10;3.88;;;2.75;;
43933;SDS011;59081;42.706;23.306;2022-07-12T02:02:36;3.45;;;2.13;;
43933;SDS011;59081;42.706;23.306;2022-07-12T02:05:03;3.28;;;2.60;;
43933;SDS011;59081;42.706;23.306;2022-07-12T02:07:30;3.35;;;2.45;;
43933;SDS011;59081;42.706;23.306;2022-07-12T02:09:56;4.72;;;2.83;;
43933;SDS011;59081;42.706;23.306;2022-07-12T02:12:22;4.43;;;2.63;;
43933;SDS011;59081;42.706;23.306;2022-07-12T02:14:48;5.43;;;2.72;;
43933;SDS011;59081;42.706;23.306;2022-07-12T02:17:15;3.95;;;2.55;;
43933;SDS011;59081;42.706;23.306;2022-07-12T02:19:42;3.85;;;2.83;;
43933;SDS011;59081;42.706;23.306;2022-07-12T02:22:08;4.13;;;2.97;;
43933;SDS011;59081;42.706;23.306;2022-07-12T02:24:33;4.97;;;3.08;;
43933;SDS011;59081;42.706;23.306;2022-07-12T02:26:59;6.60;;;3.20;;
43933;SDS011;59081;42.706;23.306;2022-07-12T02:29:24;7.95;;;3.33;;
43933;SDS011;59081;42.706;23.306;2022-07-12T02:31:50;6.28;;;2.78;;
43933;SDS011;59081;42.706;23.306;2022-07-12T02:34:15;4.55;;;2.20;;
43933;SDS011;59081;42.706;23.306;2022-07-12T02:36:41;4.32;;;2.92;;
43933;SDS011;59081;42.706;23.306;2022-07-12T02:39:06;5.43;;;2.67;;
43933;SDS011;59081;42.706;23.306;2022-07-12T02:41:32;10.13;;;2.83;;
43933;SDS011;59081;42.706;23.306;2022-07-12T02:43:59;7.25;;;3.05;;
43933;SDS011;59081;42.706;23.306;2022-07-12T02:46:24;4.63;;;2.90;;
43933;SDS011;59081;42.706;23.306;2022-07-12T02:48:50;5.95;;;2.90;;
43933;SDS011;59081;42.706;23.306;2022-07-12T02:51:17;3.33;;;2.63;;
43933;SDS011;59081;42.706;23.306;2022-07-12T02:53:43;4.10;;;2.60;;
43933;SDS011;59081;42.706;23.306;2022-07-12T02:56:09;5.93;;;3.00;;
43933;SDS011;59081;42.706;23.306;2022-07-12T02:58:36;4.63;;;2.72;;
43933;SDS011;59081;42.706;23.306;2022-07-12T03:01:02;7.57;;;3.22;;
43933;SDS011;59081;42.706;23.306;2022-07-12T03:03:28;7.32;;;3.33;;
43933;SDS011;59081;42.706;23.306;2022-07-12T03:05:54;3.97;;;2.85;;
43933;SDS011;59081;42.706;23.306;2022-07-12T03:08:19;6.32;;;2.88;;
43933;SDS011;59081;42.706;23.306;2022-07-12T03:10:45;4.55;;;3.10;;
43933;SDS011;59081;42.706;23.306;2022-07-12T03:13:10;5.65;;;3.05;;
43933;SDS011;59081;42.706;23.306;2022-07-12T03:15:36;5.45;;;3.53;;
43933;SDS011;59081;42.706;23.306;2022-07-12T03:18:02;4.65;;;2.80;;
43933;SDS011;59081;42.706;23.306;2022-07-12T03:20:30;6.55;;;2.70;;
43933;SDS011;59081;42.706;23.306;2022-07-12T03:22:56;5.82;;;3.03;;
43933;SDS011;59081;42.706;23.306;2022-07-12T03:25:22;5.75;;;3.10;;
43933;SDS011;59081;42.706;23.306;2022-07-12T03:27:48;8.15;;;3.83;;
43933;SDS011;59081;42.706;23.306;2022-07-12T03:30:14;5.45;;;3.25;;
43933;SDS011;59081;42.706;23.306;2022-07-12T03:32:40;9.18;;;2.95;;
43933;SDS011;59081;42.706;23.306;2022-07-12T03:35:06;3.88;;;2.53;;
43933;SDS011;59081;42.706;23.306;2022-07-12T03:37:45;6.25;;;3.30;;
43933;SDS011;59081;42.706;23.306;2022-07-12T03:40:12;8.82;;;3.88;;
43933;SDS011;59081;42.706;23.306;2022-07-12T03:42:39;5.18;;;3.72;;
43933;SDS011;59081;42.706;23.306;2022-07-12T03:45:05;9.63;;;3.13;;
43933;SDS011;59081;42.706;23.306;2022-07-12T03:47:31;3.33;;;2.53;;
43933;SDS011;59081;42.706;23.306;2022-07-12T03:49:57;6.63;;;2.80;;
43933;SDS011;59081;42.706;23.306;2022-07-12T03:52:23;8.10;;;3.53;;
43933;SDS011;59081;42.706;23.306;2022-07-12T03:54:51;6.43;;;3.45;;
43933;SDS011;59081;42.706;23.306;2022-07-12T03:57:16;5.95;;;3.22;;
43933;SDS011;59081;42.706;23.306;2022-07-12T03:59:42;5.05;;;3.00;;
43933;SDS011;59081;42.706;23.306;2022-07-12T04:02:09;9.95;;;3.20;;
43933;SDS011;59081;42.706;23.306;2022-07-12T04:04:35;4.88;;;2.92;;
43933;SDS011;59081;42.706;23.306;2022-07-12T04:07:00;3.97;;;2.92;;
43933;SDS011;59081;42.706;23.306;2022-07-12T04:09:26;8.95;;;3.55;;
43933;SDS011;59081;42.706;23.306;2022-07-12T04:11:51;7.28;;;2.95;;
43933;SDS011;59081;42.706;23.306;2022-07-12T04:14:17;7.28;;;3.17;;
43933;SDS011;59081;42.706;23.306;2022-07-12T04:16:42;6.65;;;2.95;;
43933;SDS011;59081;42.706;23.306;2022-07-12T04:19:09;6.32;;;3.05;;
43933;SDS011;59081;42.706;23.306;2022-07-12T04:21:35;8.15;;;3.40;;
43933;SDS011;59081;42.706;23.306;2022-07-12T04:24:01;5.35;;;2.67;;
43933;SDS011;59081;42.706;23.306;2022-07-12T04:26:28;5.80;;;2.85;;
43933;SDS011;59081;42.706;23.306;2022-07-12T04:28:53;9.35;;;2.85;;
43933;SDS011;59081;42.706;23.306;2022-07-12T04:31:19;7.35;;;3.10;;
43933;SDS011;59081;42.706;23.306;2022-07-12T04:33:44;6.18;;;2.80;;
43933;SDS011;59081;42.706;23.306;2022-07-12T04:36:10;6.15;;;3.28;;
43933;SDS011;59081;42.706;23.306;2022-07-12T04:38:35;4.68;;;2.25;;
43933;SDS011;59081;42.706;23.306;2022-07-12T04:41:01;3.47;;;2.97;;
43933;SDS011;59081;42.706;23.306;2022-07-12T04:43:26;6.95;;;3.13;;
43933;SDS011;59081;42.706;23.306;2022-07-12T04:45:52;5.97;;;2.78;;
43933;SDS011;59081;42.706;23.306;2022-07-12T04:48:18;5.13;;;3.00;;
43933;SDS011;59081;42.706;23.306;2022-07-12T04:50:43;5.78;;;2.80;;
43933;SDS011;59081;42.706;23.306;2022-07-12T04:53:09;7.57;;;2.83;;
43933;SDS011;59081;42.706;23.306;2022-07-12T04:55:35;5.68;;;2.78;;
43933;SDS011;59081;42.706;23.306;2022-07-12T04:58:01;6.15;;;3.08;;
43933;SDS011;59081;42.706;23.306;2022-07-12T05:00:27;5.53;;;2.55;;
43933;SDS011;59081;42.706;23.306;2022-07-12T05:02:53;9.02;;;3.03;;
43933;SDS011;59081;42.706;23.306;2022-07-12T05:05:21;7.70;;;2.80;;
43933;SDS011;59081;42.706;23.306;2022-07-12T05:07:46;4.78;;;2.72;;
43933;SDS011;59081;42.706;23.306;2022-07-12T05:10:12;7.82;;;2.83;;
43933;SDS011;59081;42.706;23.306;2022-07-12T05:12:46;5.65;;;3.20;;
43933;SDS011;59081;42.706;23.306;2022-07-12T05:15:12;5.93;;;2.88;;
43933;SDS011;59081;42.706;23.306;2022-07-12T05:17:37;5.68;;;2.97;;
43933;SDS011;59081;42.706;23.306;2022-07-12T05:20:03;7.90;;;2.85;;
43933;SDS011;59081;42.706;23.306;2022-07-12T05:22:29;7.18;;;3.33;;
43933;SDS011;59081;42.706;23.306;2022-07-12T05:24:54;10.63;;;3.30;;
43933;SDS011;59081;42.706;23.306;2022-07-12T05:27:20;10.10;;;3.72;;
43933;SDS011;59081;42.706;23.306;2022-07-12T05:29:45;6.40;;;2.85;;
43933;SDS011;59081;42.706;23.306;2022-07-12T05:32:11;7.10;;;3.67;;
43933;SDS011;59081;42.706;23.306;2022-07-12T05:34:37;5.95;;;3.00;;
43933;SDS011;59081;42.706;23.306;2022-07-12T05:37:03;4.80;;;3.22;;
43933;SDS011;59081;42.706;23.306;2022-07-12T05:39:29;6.85;;;3.50;;
43933;SDS011;59081;42.706;23.306;2022-07-12T05:41:55;9.60;;;3.55;;
43933;SDS011;59081;42.706;23.306;2022-07-12T05:44:21;7.95;;;3.95;;
43933;SDS011;59081;42.706;23.306;2022-07-12T05:46:47;7.70;;;3.50;;
43933;SDS011;59081;42.706;23.306;2022-07-12T05:49:13;6.13;;;3.33;;
43933;SDS011;59081;42.706;23.306;2022-07-12T05:51:39;7.22;;;3.65;;
43933;SDS011;59081;42.706;23.306;2022-07-12T05:54:22;12.50;;;3.90;;
43933;SDS011;59081;42.706;23.306;2022-07-12T05:56:48;14.40;;;3.50;;
43933;SDS011;59081;42.706;23.306;2022-07-12T05:59:16;12.40;;;3.78;;
43933;SDS011;59081;42.706;23.306;2022-07-12T06:01:44;8.32;;;3.20;;
43933;SDS011;59081;42.706;23.306;2022-07-12T06:04:10;9.85;;;3.42;;
43933;SDS011;59081;42.706;23.306;2022-07-12T06:06:35;12.00;;;3.53;;
43933;SDS011;59081;42.706;23.306;2022-07-12T06:09:01;6.28;;;3.38;;
43933;SDS011;59081;42.706;23.306;2022-07-12T06:11:28;8.10;;;4.10;;
43933;SDS011;59081;42.706;23.306;2022-07-12T06:13:53;6.47;;;3.20;;
43933;SDS011;59081;42.706;23.306;2022-07-12T06:16:19;9.77;;;3.30;;
43933;SDS011;59081;42.706;23.306;2022-07-12T06:18:44;8.38;;;3.38;;
43933;SDS011;59081;42.706;23.306;2022-07-12T06:21:10;7.03;;;3.25;;
43933;SDS011;59081;42.706;23.306;2022-07-12T06:23:35;4.93;;;2.70;;
43933;SDS011;59081;42.706;23.306;2022-07-12T06:26:00;4.13;;;2.42;;
43933;SDS011;59081;42.706;23.306;2022-07-12T06:28:26;10.65;;;2.78;;
43933;SDS011;59081;42.706;23.306;2022-07-12T06:30:51;5.65;;;3.00;;
43933;SDS011;59081;42.706;23.306;2022-07-12T06:33:17;6.75;;;3.33;;
43933;SDS011;59081;42.706;23.306;2022-07-12T06:35:43;7.70;;;3.20;;
43933;SDS011;59081;42.706;23.306;2022-07-12T06:38:08;5.53;;;2.35;;
43933;SDS011;59081;42.706;23.306;2022-07-12T06:40:33;6.53;;;2.40;;
43933;SDS011;59081;42.706;23.306;2022-07-12T06:42:59;6.70;;;2.60;;
43933;SDS011;59081;42.706;23.306;2022-07-12T06:45:24;4.32;;;1.70;;
43933;SDS011;59081;42.706;23.306;2022-07-12T06:47:53;3.28;;;1.90;;
43933;SDS011;59081;42.706;23.306;2022-07-12T06:50:19;7.90;;;1.90;;
43933;SDS011;59081;42.706;23.306;2022-07-12T06:52:44;7.15;;;1.60;;
43933;SDS011;59081;42.706;23.306;2022-07-12T06:55:10;5.60;;;1.67;;
43933;SDS011;59081;42.706;23.306;2022-07-12T06:57:35;4.65;;;1.77;;
43933;SDS011;59081;42.706;23.306;2022-07-12T07:00:03;5.68;;;2.13;;
43933;SDS011;59081;42.706;23.306;2022-07-12T07:02:30;5.55;;;1.55;;
43933;SDS011;59081;42.706;23.306;2022-07-12T07:04:55;3.85;;;1.08;;
43933;SDS011;59081;42.706;23.306;2022-07-12T07:07:21;4.50;;;1.20;;
43933;SDS011;59081;42.706;23.306;2022-07-12T07:09:46;5.70;;;1.55;;
43933;SDS011;59081;42.706;23.306;2022-07-12T07:12:12;3.50;;;1.23;;
43933;SDS011;59081;42.706;23.306;2022-07-12T07:14:37;3.10;;;1.58;;
43933;SDS011;59081;42.706;23.306;2022-07-12T07:17:03;3.85;;;1.00;;
43933;SDS011;59081;42.706;23.306;2022-07-12T07:19:28;6.93;;;1.67;;
43933;SDS011;59081;42.706;23.306;2022-07-12T07:21:55;2.42;;;1.40;;
43933;SDS011;59081;42.706;23.306;2022-07-12T07:24:21;2.80;;;1.20;;
43933;SDS011;59081;42.706;23.306;2022-07-12T07:26:47;6.05;;;1.52;;
43933;SDS011;59081;42.706;23.306;2022-07-12T07:29:13;5.68;;;1.10;;
43933;SDS011;59081;42.706;23.306;2022-07-12T07:31:57;3.33;;;1.48;;
43933;SDS011;59081;42.706;23.306;2022-07-12T07:34:22;2.08;;;1.20;;
43933;SDS011;59081;42.706;23.306;2022-07-12T07:36:49;6.40;;;1.25;;
43933;SDS011;59081;42.706;23.306;2022-07-12T07:39:15;5.82;;;1.55;;
43933;SDS011;59081;42.706;23.306;2022-07-12T07:41:40;6.45;;;1.40;;
43933;SDS011;59081;42.706;23.306;2022-07-12T07:44:06;3.10;;;1.05;;
43933;SDS011;59081;42.706;23.306;2022-07-12T07:46:31;3.55;;;1.13;;
43933;SDS011;59081;42.706;23.306;2022-07-12T07:48:57;7.40;;;1.73;;
43933;SDS011;59081;42.706;23.306;2022-07-12T07:51:23;4.63;;;1.55;;
43933;SDS011;59081;42.706;23.306;2022-07-12T07:53:48;5.32;;;1.15;;
43933;SDS011;59081;42.706;23.306;2022-07-12T07:56:13;4.38;;;1.48;;
43933;SDS011;59081;42.706;23.306;2022-07-12T07:58:39;3.88;;;0.93;;
43933;SDS011;59081;42.706;23.306;2022-07-12T08:01:04;6.38;;;1.27;;
43933;SDS011;59081;42.706;23.306;2022-07-12T08:03:30;6.55;;;1.13;;
43933;SDS011;59081;42.706;23.306;2022-07-12T08:05:55;4.55;;;1.20;;
43933;SDS011;59081;42.706;23.306;2022-07-12T08:08:23;1.60;;;0.98;;
43933;SDS011;59081;42.706;23.306;2022-07-12T08:10:52;6.97;;;0.93;;
43933;SDS011;59081;42.706;23.306;2022-07-12T08:13:17;4.47;;;1.27;;
43933;SDS011;59081;42.706;23.306;2022-07-12T08:15:43;5.45;;;1.17;;
43933;SDS011;59081;42.706;23.306;2022-07-12T08:18:08;3.20;;;1.20;;
43933;SDS011;59081;42.706;23.306;2022-07-12T08:20:34;4.38;;;1.40;;
43933;SDS011;59081;42.706;23.306;2022-07-12T08:22:59;5.57;;;1.23;;
43933;SDS011;59081;42.706;23.306;2022-07-12T08:25:25;6.72;;;1.08;;
43933;SDS011;59081;42.706;23.306;2022-07-12T08:27:50;6.43;;;1.75;;
43933;SDS011;59081;42.706;23.306;2022-07-12T08:30:16;4.20;;;1.20;;
43933;SDS011;59081;42.706;23.306;2022-07-12T08:32:45;4.10;;;1.70;;
43933;SDS011;59081;42.706;23.306;2022-07-12T08:35:11;3.95;;;1.05;;
43933;SDS011;59081;42.706;23.306;2022-07-12T08:37:36;2.03;;;1.08;;
43933;SDS011;59081;42.706;23.306;2022-07-12T08:40:02;7.75;;;1.15;;
43933;SDS011;59081;42.706;23.306;2022-07-12T08:42:30;3.25;;;1.30;;
43933;SDS011;59081;42.706;23.306;2022-07-12T08:44:56;1.95;;;0.93;;
43933;SDS011;59081;42.706;23.306;2022-07-12T08:47:22;1.40;;;0.88;;
43933;SDS011;59081;42.706;23.306;2022-07-12T08:52:39;4.43;;;0.88;;
43933;SDS011;59081;42.706;23.306;2022-07-12T08:57:54;2.72;;;1.08;;
43933;SDS011;59081;42.706;23.306;2022-07-12T09:00:21;2.53;;;0.80;;
43933;SDS011;59081;42.706;23.306;2022-07-12T09:02:54;6.75;;;1.70;;
43933;SDS011;59081;42.706;23.306;2022-07-12T09:05:22;4.88;;;1.13;;
43933;SDS011;59081;42.706;23.306;2022-07-12T09:07:48;4.45;;;1.20;;
43933;SDS011;59081;42.706;23.306;2022-07-12T09:10:14;2.95;;;0.85;;
43933;SDS011;59081;42.706;23.306;2022-07-12T09:12:40;6.38;;;1.30;;
43933;SDS011;59081;42.706;23.306;2022-07-12T09:15:10;1.70;;;0.90;;
43933;SDS011;59081;42.706;23.306;2022-07-12T09:17:36;2.80;;;0.77;;
43933;SDS011;59081;42.706;23.306;2022-07-12T09:20:02;2.08;;;0.82;;
43933;SDS011;59081;42.706;23.306;2022-07-12T09:22:29;3.83;;;1.00;;
43933;SDS011;59081;42.706;23.306;2022-07-12T09:24:54;3.47;;;0.93;;
43933;SDS011;59081;42.706;23.306;2022-07-12T09:27:26;2.33;;;1.15;;
43933;SDS011;59081;42.706;23.306;2022-07-12T09:29:51;1.73;;;0.80;;
43933;SDS011;59081;42.706;23.306;2022-07-12T09:32:17;3.83;;;1.55;;
43933;SDS011;59081;42.706;23.306;2022-07-12T09:35:02;5.05;;;1.00;;
43933;SDS011;59081;42.706;23.306;2022-07-12T09:37:47;5.57;;;1.00;;
43933;SDS011;59081;42.706;23.306;2022-07-12T09:40:13;2.38;;;0.95;;
43933;SDS011;59081;42.706;23.306;2022-07-12T09:42:39;3.30;;;0.63;;
43933;SDS011;59081;42.706;23.306;2022-07-12T09:45:09;2.05;;;0.88;;
43933;SDS011;59081;42.706;23.306;2022-07-12T09:47:35;5.33;;;0.73;;
43933;SDS011;59081;42.706;23.306;2022-07-12T09:50:02;1.85;;;0.90;;
43933;SDS011;59081;42.706;23.306;2022-07-12T09:52:28;9.50;;;1.33;;
43933;SDS011;59081;42.706;23.306;2022-07-12T09:54:55;2.35;;;0.98;;
43933;SDS011;59081;42.706;23.306;2022-07-12T09:57:26;3.08;;;1.00;;
43933;SDS011;59081;42.706;23.306;2022-07-12T09:59:59;2.95;;;0.82;;
43933;SDS011;59081;42.706;23.306;2022-07-12T10:02:26;3.85;;;1.27;;
43933;SDS011;59081;42.706;23.306;2022-07-12T10:04:53;4.82;;;0.90;;
43933;SDS011;59081;42.706;23.306;2022-07-12T10:07:20;1.92;;;1.00;;
43933;SDS011;59081;42.706;23.306;2022-07-12T10:09:50;3.65;;;0.90;;
43933;SDS011;59081;42.706;23.306;2022-07-12T10:12:19;3.83;;;0.85;;
43933;SDS011;59081;42.706;23.306;2022-07-12T10:14:45;2.95;;;1.30;;
43933;SDS011;59081;42.706;23.306;2022-07-12T10:17:14;7.35;;;0.80;;
43933;SDS011;59081;42.706;23.306;2022-07-12T10:19:47;2.00;;;0.95;;
43933;SDS011;59081;42.706;23.306;2022-07-12T10:22:19;2.60;;;0.75;;
43933;SDS011;59081;42.706;23.306;2022-07-12T10:24:49;2.00;;;0.73;;
43933;SDS011;59081;42.706;23.306;2022-07-12T10:29:51;3.80;;;0.90;;
43933;SDS011;59081;42.706;23.306;2022-07-12T10:32:34;1.40;;;0.85;;
43933;SDS011;59081;42.706;23.306;2022-07-12T10:37:35;4.15;;;0.75;;
43933;SDS011;59081;42.706;23.306;2022-07-12T10:40:10;2.70;;;0.80;;
43933;SDS011;59081;42.706;23.306;2022-07-12T10:42:39;2.20;;;1.15;;
43933;SDS011;59081;42.706;23.306;2022-07-12T10:45:14;5.03;;;1.20;;
43933;SDS011;59081;42.706;23.306;2022-07-12T10:47:52;1.13;;;1.00;;
43933;SDS011;59081;42.706;23.306;2022-07-12T10:56:06;5.25;;;1.25;;
43933;SDS011;59081;42.706;23.306;2022-07-12T10:58:38;2.17;;;0.73;;
43933;SDS011;59081;42.706;23.306;2022-07-12T11:01:15;2.88;;;1.00;;
43933;SDS011;59081;42.706;23.306;2022-07-12T11:03:49;3.33;;;1.35;;
43933;SDS011;59081;42.706;23.306;2022-07-12T11:06:25;3.38;;;0.90;;
43933;SDS011;59081;42.706;23.306;2022-07-12T11:11:28;6.13;;;0.90;;
43933;SDS011;59081;42.706;23.306;2022-07-12T11:13:59;1.60;;;1.00;;
43933;SDS011;59081;42.706;23.306;2022-07-12T11:16:26;2.17;;;0.82;;
43933;SDS011;59081;42.706;23.306;2022-07-12T11:18:52;2.65;;;0.93;;
43933;SDS011;59081;42.706;23.306;2022-07-12T11:21:18;8.02;;;1.58;;
43933;SDS011;59081;42.706;23.306;2022-07-12T11:23:45;3.60;;;0.88;;
43933;SDS011;59081;42.706;23.306;2022-07-12T11:26:11;1.95;;;1.17;;
43933;SDS011;59081;42.706;23.306;2022-07-12T11:28:38;2.00;;;1.02;;
43933;SDS011;59081;42.706;23.306;2022-07-12T11:31:09;2.10;;;1.13;;
43933;SDS011;59081;42.706;23.306;2022-07-12T11:33:40;1.55;;;1.00;;
43933;SDS011;59081;42.706;23.306;2022-07-12T11:36:08;2.60;;;0.85;;
43933;SDS011;59081;42.706;23.306;2022-07-12T11:38:35;4.45;;;0.90;;
43933;SDS011;59081;42.706;23.306;2022-07-12T11:41:02;4.82;;;0.90;;
43933;SDS011;59081;42.706;23.306;2022-07-12T11:43:29;3.05;;;0.90;;
43933;SDS011;59081;42.706;23.306;2022-07-12T11:45:56;1.30;;;1.00;;
43933;SDS011;59081;42.706;23.306;2022-07-12T11:48:22;2.30;;;0.70;;
43933;SDS011;59081;42.706;23.306;2022-07-12T11:50:50;3.78;;;0.70;;
43933;SDS011;59081;42.706;23.306;2022-07-12T11:53:24;6.55;;;1.17;;
43933;SDS011;59081;42.706;23.306;2022-07-12T11:55:51;1.00;;;0.90;;
43933;SDS011;59081;42.706;23.306;2022-07-12T11:58:21;3.85;;;1.00;;
43933;SDS011;59081;42.706;23.306;2022-07-12T12:00:47;1.30;;;0.95;;
43933;SDS011;59081;42.706;23.306;2022-07-12T12:03:14;1.55;;;0.90;;
43933;SDS011;59081;42.706;23.306;2022-07-12T12:05:44;1.70;;;0.65;;
43933;SDS011;59081;42.706;23.306;2022-07-12T12:08:12;1.70;;;1.10;;
43933;SDS011;59081;42.706;23.306;2022-07-12T12:10:39;2.35;;;1.40;;
43933;SDS011;59081;42.706;23.306;2022-07-12T12:13:14;1.98;;;0.70;;
43933;SDS011;59081;42.706;23.306;2022-07-12T12:15:41;1.23;;;0.75;;
43933;SDS011;59081;42.706;23.306;2022-07-12T12:18:16;5.55;;;0.88;;
43933;SDS011;59081;42.706;23.306;2022-07-12T12:20:41;2.63;;;0.60;;
43933;SDS011;59081;42.706;23.306;2022-07-12T12:23:17;8.32;;;0.95;;
43933;SDS011;59081;42.706;23.306;2022-07-12T12:25:44;2.50;;;1.08;;
43933;SDS011;59081;42.706;23.306;2022-07-12T12:28:11;2.05;;;0.70;;
43933;SDS011;59081;42.706;23.306;2022-07-12T12:30:59;3.45;;;0.75;;
43933;SDS011;59081;42.706;23.306;2022-07-12T12:36:13;2.20;;;1.00;;
43933;SDS011;59081;42.706;23.306;2022-07-12T12:38:40;5.97;;;0.90;;
43933;SDS011;59081;42.706;23.306;2022-07-12T12:41:07;2.17;;;0.80;;
43933;SDS011;59081;42.706;23.306;2022-07-12T12:43:33;2.22;;;0.80;;
43933;SDS011;59081;42.706;23.306;2022-07-12T12:45:58;3.38;;;1.00;;
43933;SDS011;59081;42.706;23.306;2022-07-12T12:48:25;3.70;;;1.05;;
43933;SDS011;59081;42.706;23.306;2022-07-12T12:50:53;2.08;;;0.70;;
43933;SDS011;59081;42.706;23.306;2022-07-12T12:53:27;1.52;;;0.80;;
43933;SDS011;59081;42.706;23.306;2022-07-12T12:55:53;4.95;;;1.02;;
43933;SDS011;59081;42.706;23.306;2022-07-12T12:58:20;2.28;;;0.77;;
43933;SDS011;59081;42.706;23.306;2022-07-12T13:00:48;4.00;;;0.98;;
43933;SDS011;59081;42.706;23.306;2022-07-12T13:03:15;7.60;;;1.33;;
43933;SDS011;59081;42.706;23.306;2022-07-12T13:05:45;1.73;;;0.80;;
43933;SDS011;59081;42.706;23.306;2022-07-12T13:08:11;2.70;;;0.85;;
43933;SDS011;59081;42.706;23.306;2022-07-12T13:10:39;5.70;;;0.80;;
43933;SDS011;59081;42.706;23.306;2022-07-12T13:13:06;6.70;;;0.90;;
43933;SDS011;59081;42.706;23.306;2022-07-12T13:15:32;5.00;;;1.10;;
43933;SDS011;59081;42.706;23.306;2022-07-12T13:17:58;1.15;;;0.73;;
43933;SDS011;59081;42.706;23.306;2022-07-12T13:20:25;6.22;;;1.23;;
43933;SDS011;59081;42.706;23.306;2022-07-12T13:22:51;2.33;;;0.90;;
43933;SDS011;59081;42.706;23.306;2022-07-12T13:25:18;1.30;;;0.65;;
43933;SDS011;59081;42.706;23.306;2022-07-12T13:27:43;2.95;;;0.70;;
43933;SDS011;59081;42.706;23.306;2022-07-12T13:30:11;1.25;;;0.50;;
43933;SDS011;59081;42.706;23.306;2022-07-12T13:32:38;2.38;;;0.90;;
43933;SDS011;59081;42.706;23.306;2022-07-12T13:35:04;0.93;;;0.75;;
43933;SDS011;59081;42.706;23.306;2022-07-12T13:37:31;3.15;;;0.77;;
43933;SDS011;59081;42.706;23.306;2022-07-12T13:39:57;3.13;;;0.75;;
43933;SDS011;59081;42.706;23.306;2022-07-12T13:42:42;1.83;;;0.70;;
43933;SDS011;59081;42.706;23.306;2022-07-12T13:45:15;2.55;;;0.75;;
43933;SDS011;59081;42.706;23.306;2022-07-12T13:47:42;1.38;;;0.90;;
43933;SDS011;59081;42.706;23.306;2022-07-12T13:50:10;3.75;;;0.80;;
43933;SDS011;59081;42.706;23.306;2022-07-12T13:52:36;6.18;;;1.02;;
43933;SDS011;59081;42.706;23.306;2022-07-12T13:55:03;3.72;;;0.93;;
43933;SDS011;59081;42.706;23.306;2022-07-12T13:57:29;1.15;;;0.73;;
43933;SDS011;59081;42.706;23.306;2022-07-12T13:59:56;1.90;;;0.80;;
43933;SDS011;59081;42.706;23.306;2022-07-12T14:02:23;1.88;;;0.80;;
43933;SDS011;59081;42.706;23.306;2022-07-12T14:04:49;6.05;;;1.17;;
43933;SDS011;59081;42.706;23.306;2022-07-12T14:07:15;6.00;;;0.80;;
43933;SDS011;59081;42.706;23.306;2022-07-12T14:09:40;3.22;;;0.80;;
43933;SDS011;59081;42.706;23.306;2022-07-12T14:12:06;3.35;;;0.80;;
43933;SDS011;59081;42.706;23.306;2022-07-12T14:14:33;4.07;;;1.08;;
43933;SDS011;59081;42.706;23.306;2022-07-12T14:17:17;1.05;;;0.60;;
43933;SDS011;59081;42.706;23.306;2022-07-12T14:19:43;2.05;;;0.70;;
43933;SDS011;59081;42.706;23.306;2022-07-12T14:22:08;4.38;;;1.10;;
43933;SDS011;59081;42.706;23.306;2022-07-12T14:24:34;2.80;;;0.82;;
43933;SDS011;59081;42.706;23.306;2022-07-12T14:26:59;6.70;;;1.02;;
43933;SDS011;59081;42.706;23.306;2022-07-12T14:29:25;3.78;;;1.00;;
43933;SDS011;59081;42.706;23.306;2022-07-12T14:31:50;10.90;;;1.02;;
43933;SDS011;59081;42.706;23.306;2022-07-12T14:34:16;1.13;;;0.70;;
43933;SDS011;59081;42.706;23.306;2022-07-12T14:36:43;2.42;;;1.15;;
43933;SDS011;59081;42.706;23.306;2022-07-12T14:39:09;2.97;;;0.90;;
43933;SDS011;59081;42.706;23.306;2022-07-12T14:41:34;3.72;;;1.02;;
43933;SDS011;59081;42.706;23.306;2022-07-12T14:44:00;2.03;;;0.88;;
43933;SDS011;59081;42.706;23.306;2022-07-12T14:46:26;1.92;;;0.88;;
43933;SDS011;59081;42.706;23.306;2022-07-12T14:48:51;1.75;;;0.70;;
43933;SDS011;59081;42.706;23.306;2022-07-12T14:51:17;2.25;;;0.90;;
43933;SDS011;59081;42.706;23.306;2022-07-12T14:53:42;4.47;;;1.20;;